createdAt,value
2019-05-03T00:02:21.684Z,48.20
2019-05-03T00:05:28.885Z,48.20
2019-05-03T00:08:23.371Z,48.20
2019-05-03T00:11:16.672Z,48.30
2019-05-03T00:14:12.312Z,48.50
2019-05-03T00:17:05.549Z,48.50
2019-05-03T00:19:58.393Z,48.50
2019-05-03T00:22:52.403Z,49.00
2019-05-03T00:25:46.131Z,48.50
2019-05-03T00:28:39.188Z,48.50
2019-05-03T00:31:33.817Z,48.50
2019-05-03T00:34:33.221Z,48.60
2019-05-03T00:37:28.937Z,48.50
2019-05-03T00:40:32.371Z,48.40
2019-05-03T00:43:27.530Z,48.50
2019-05-03T00:46:22.021Z,48.70
2019-05-03T00:49:16.385Z,48.60
2019-05-03T00:52:09.439Z,48.60
2019-05-03T00:55:15.228Z,48.50
2019-05-03T00:57:59.283Z,48.70
2019-05-03T01:00:53.450Z,48.50
2019-05-03T01:03:47.504Z,48.60
2019-05-03T01:06:42.382Z,48.60
2019-05-03T01:09:42.275Z,48.60
2019-05-03T01:12:38.924Z,48.70
2019-05-03T01:15:47.164Z,48.70
2019-05-03T01:18:41.739Z,48.70
2019-05-03T01:21:35.744Z,48.80
2019-05-03T01:24:29.250Z,48.90
2019-05-03T01:27:22.682Z,48.90
2019-05-03T01:30:15.758Z,48.90
2019-05-03T01:33:08.969Z,49.00
2019-05-03T01:36:02.783Z,48.90
2019-05-03T01:38:56.169Z,48.90
2019-05-03T01:41:51.780Z,49.00
2019-05-03T01:44:45.220Z,49.00
2019-05-03T01:47:54.053Z,49.00
2019-05-03T01:50:57.831Z,49.00
2019-05-03T01:53:52.867Z,48.80
2019-05-03T01:56:56.846Z,48.70
2019-05-03T01:59:43.370Z,48.90
2019-05-03T02:02:47.097Z,49.00
2019-05-03T02:05:54.436Z,49.10
2019-05-03T02:08:49.084Z,49.00
2019-05-03T02:11:42.248Z,49.20
2019-05-03T02:14:36.210Z,49.00
2019-05-03T02:17:31.803Z,49.00
2019-05-03T02:20:25.488Z,49.20
2019-05-03T02:23:19.761Z,49.10
2019-05-03T02:26:14.363Z,49.00
2019-05-03T02:29:12.577Z,48.80
2019-05-03T02:32:07.266Z,48.80
2019-05-03T02:35:03.111Z,48.80
2019-05-03T02:37:57.187Z,48.50
2019-05-03T02:40:53.196Z,48.50
2019-05-03T02:43:50.841Z,48.50
2019-05-03T02:47:01.930Z,48.20
2019-05-03T02:50:02.456Z,47.90
2019-05-03T02:52:56.827Z,47.90
2019-05-03T02:55:50.871Z,48.10
2019-05-03T02:58:46.069Z,47.90
2019-05-03T03:01:39.295Z,47.70
2019-05-03T03:04:35.241Z,47.60
2019-05-03T03:07:27.884Z,47.50
2019-05-03T03:10:21.454Z,47.50
2019-05-03T03:13:16.376Z,47.40
2019-05-03T03:16:10.870Z,47.30
2019-05-03T03:19:06.907Z,47.30
2019-05-03T03:22:05.675Z,47.20
2019-05-03T03:24:59.223Z,47.90
2019-05-03T03:27:55.571Z,48.60
2019-05-03T03:31:10.356Z,48.90
2019-05-03T03:34:08.633Z,49.00
2019-05-03T03:37:08.920Z,48.90
2019-05-03T03:39:59.246Z,48.80
2019-05-03T03:42:55.545Z,49.00
2019-05-03T03:45:49.539Z,48.80
2019-05-03T03:48:46.046Z,49.30
2019-05-03T03:51:40.934Z,49.20
2019-05-03T03:54:36.762Z,49.20
2019-05-03T03:57:30.917Z,49.30
2019-05-03T04:00:26.062Z,49.30
2019-05-03T04:03:20.979Z,49.30
2019-05-03T04:06:16.311Z,49.30
2019-05-03T04:09:11.084Z,49.20
2019-05-03T04:12:06.748Z,49.10
2019-05-03T04:15:11.590Z,49.00
2019-05-03T04:18:30.294Z,49.10
2019-05-03T04:21:25.853Z,49.10
2019-05-03T04:24:20.249Z,49.10
2019-05-03T04:27:23.302Z,49.10
2019-05-03T04:30:19.030Z,49.10
2019-05-03T04:33:11.264Z,49.10
2019-05-03T04:36:05.597Z,49.10
2019-05-03T04:38:59.434Z,49.00
2019-05-03T04:41:55.845Z,49.00
2019-05-03T04:44:49.179Z,49.00
2019-05-03T04:47:42.993Z,49.00
2019-05-03T04:50:36.750Z,48.90
2019-05-03T04:53:31.532Z,48.90
2019-05-03T04:56:26.185Z,44.40
2019-05-03T04:59:19.058Z,41.70
2019-05-03T05:02:15.901Z,38.60
2019-05-03T05:05:10.196Z,36.60
2019-05-03T05:08:05.916Z,35.40
2019-05-03T05:11:00.979Z,34.60
2019-05-03T05:13:56.079Z,34.50
2019-05-03T05:16:50.198Z,35.60
2019-05-03T05:19:50.757Z,35.20
2019-05-03T05:22:46.780Z,35.00
2019-05-03T05:25:49.061Z,35.00
2019-05-03T05:28:52.281Z,34.70
2019-05-03T05:31:59.445Z,34.40
2019-05-03T05:35:02.547Z,34.00
2019-05-03T05:38:01.916Z,33.80
2019-05-03T05:41:11.416Z,33.70
2019-05-03T05:44:36.318Z,33.60
2019-05-03T05:47:55.076Z,33.20
2019-05-03T05:50:52.699Z,33.10
2019-05-03T05:53:48.804Z,34.00
2019-05-03T05:56:57.147Z,35.10
2019-05-03T06:00:05.975Z,36.00
2019-05-03T06:03:05.254Z,37.40
2019-05-03T06:06:10.637Z,38.20
2019-05-03T06:09:21.975Z,39.40
2019-05-03T06:12:43.015Z,40.30
2019-05-03T06:16:11.314Z,40.70
2019-05-03T06:19:14.695Z,41.40
2019-05-03T06:22:27.463Z,42.00
2019-05-03T06:25:45.294Z,42.90
2019-05-03T06:28:41.804Z,43.40
2019-05-03T06:31:49.846Z,43.90
2019-05-03T06:34:51.276Z,44.60
2019-05-03T06:37:48.151Z,45.00
2019-05-03T06:40:48.329Z,45.20
2019-05-03T06:43:50.265Z,45.60
2019-05-03T06:46:51.756Z,45.90
2019-05-03T06:49:48.392Z,46.80
2019-05-03T06:52:44.410Z,46.30
2019-05-03T06:55:40.050Z,46.80
2019-05-03T06:58:36.604Z,47.20
2019-05-03T07:01:38.692Z,47.20
2019-05-03T07:04:38.899Z,47.60
2019-05-03T07:07:56.402Z,47.50
2019-05-03T07:10:54.961Z,47.60
2019-05-03T07:13:50.247Z,48.10
2019-05-03T07:16:44.397Z,48.00
2019-05-03T07:19:39.444Z,47.90
2019-05-03T07:22:35.186Z,48.00
2019-05-03T07:25:34.445Z,49.30
2019-05-03T07:28:43.570Z,45.00
2019-05-03T07:31:29.337Z,41.00
2019-05-03T07:34:26.621Z,41.90
2019-05-03T07:37:24.450Z,42.40
2019-05-03T07:40:21.291Z,42.90
2019-05-03T07:43:19.069Z,43.00
2019-05-03T07:46:14.881Z,43.00
2019-05-03T07:49:09.917Z,43.30
2019-05-03T07:52:34.980Z,44.50
2019-05-03T07:55:45.669Z,44.20
2019-05-03T07:58:53.051Z,44.50
2019-05-03T08:01:46.252Z,45.00
2019-05-03T08:04:40.593Z,45.10
2019-05-03T08:07:37.363Z,45.50
2019-05-03T08:10:35.670Z,45.70
2019-05-03T08:13:35.592Z,46.00
2019-05-03T08:16:31.714Z,46.30
2019-05-03T08:19:27.644Z,46.50
2019-05-03T08:22:25.764Z,46.70
2019-05-03T08:25:21.520Z,46.90
2019-05-03T08:28:16.249Z,47.20
2019-05-03T08:31:26.741Z,47.40
2019-05-03T08:34:45.290Z,47.60
2019-05-03T08:37:47.433Z,47.90
2019-05-03T08:40:48.789Z,47.90
2019-05-03T08:43:44.503Z,48.00
2019-05-03T08:46:40.107Z,48.10
2019-05-03T08:49:35.017Z,48.20
2019-05-03T08:52:29.834Z,48.20
2019-05-03T08:55:24.961Z,48.20
2019-05-03T08:58:19.924Z,48.40
2019-05-03T09:01:14.875Z,48.50
2019-05-03T09:04:08.568Z,48.40
2019-05-03T09:07:05.533Z,48.50
2019-05-03T09:10:16.781Z,48.60
2019-05-03T09:13:21.089Z,48.70
2019-05-03T09:16:17.633Z,48.80
2019-05-03T09:19:39.388Z,48.70
2019-05-03T09:22:38.645Z,48.80
2019-05-03T09:25:35.595Z,48.80
2019-05-03T09:28:29.272Z,48.90
2019-05-03T09:31:25.126Z,48.80
2019-05-03T09:34:20.810Z,49.40
2019-05-03T09:37:16.016Z,48.80
2019-05-03T09:40:11.890Z,48.90
2019-05-03T09:43:10.675Z,48.80
2019-05-03T09:46:09.697Z,48.90
2019-05-03T09:49:12.755Z,48.90
2019-05-03T09:52:08.420Z,49.00
2019-05-03T09:55:07.632Z,49.10
2019-05-03T09:58:05.773Z,49.10
2019-05-03T10:01:01.219Z,49.00
2019-05-03T10:03:56.896Z,49.00
2019-05-03T10:06:52.312Z,48.90
2019-05-03T10:09:46.623Z,48.60
2019-05-03T10:12:41.446Z,48.50
2019-05-03T10:15:39.994Z,48.40
2019-05-03T10:18:35.542Z,48.30
2019-05-03T10:21:35.566Z,48.10
2019-05-03T10:24:34.993Z,48.10
2019-05-03T10:27:34.600Z,47.90
2019-05-03T10:30:35.458Z,47.80
2019-05-03T10:33:32.474Z,47.60
2019-05-03T10:36:29.813Z,47.40
2019-05-03T10:39:26.269Z,47.40
2019-05-03T10:42:20.623Z,47.20
2019-05-03T10:45:15.453Z,47.00
2019-05-03T10:48:12.501Z,46.90
2019-05-03T10:51:06.062Z,46.90
2019-05-03T10:54:01.983Z,46.90
2019-05-03T10:57:08.342Z,46.80
2019-05-03T11:00:05.076Z,46.90
2019-05-03T11:03:05.295Z,46.90
2019-05-03T11:05:59.907Z,46.90
2019-05-03T11:08:54.606Z,41.10
2019-05-03T11:11:50.205Z,40.10
2019-05-03T11:14:45.527Z,37.50
2019-05-03T11:17:45.367Z,44.00
2019-05-03T11:20:41.974Z,41.40
2019-05-03T11:23:42.066Z,39.50
2019-05-03T11:26:42.727Z,38.30
2019-05-03T11:29:37.324Z,38.00
2019-05-03T11:32:47.979Z,36.80
2019-05-03T11:36:06.569Z,37.00
2019-05-03T11:39:02.483Z,36.70
2019-05-03T11:42:00.921Z,36.80
2019-05-03T11:44:56.503Z,36.60
2019-05-03T11:47:54.902Z,36.80
2019-05-03T11:50:50.398Z,37.40
2019-05-03T11:53:47.333Z,37.80
2019-05-03T12:00:14.668Z,37.60
2019-05-03T12:03:35.523Z,37.70
2019-05-03T12:06:32.958Z,37.30
2019-05-03T12:09:29.791Z,37.10
2019-05-03T12:55:50.878Z,49.70
2019-05-03T12:58:55.856Z,50.40
2019-05-03T13:02:07.871Z,50.70
2019-05-03T13:05:04.740Z,49.90
2019-05-03T13:08:19.085Z,50.30
2019-05-03T13:11:13.581Z,49.80
2019-05-03T13:14:08.526Z,49.10
2019-05-03T13:17:04.636Z,48.90
2019-05-03T13:19:59.188Z,48.70
2019-05-03T13:22:55.908Z,49.40
2019-05-03T13:25:50.841Z,48.90
2019-05-03T13:28:48.040Z,49.20
2019-05-03T13:31:57.858Z,49.10
2019-05-03T13:34:41.369Z,49.00
2019-05-03T13:37:36.283Z,48.40
2019-05-03T13:40:30.241Z,47.90
2019-05-03T13:43:25.394Z,47.80
2019-05-03T13:46:19.926Z,47.60
2019-05-03T13:49:15.926Z,47.50
2019-05-03T13:52:10.071Z,47.20
2019-05-03T13:55:05.268Z,47.20
2019-05-03T13:57:58.617Z,47.30
2019-05-03T14:00:54.951Z,47.10
2019-05-03T14:03:49.495Z,47.00
2019-05-03T14:06:44.717Z,47.00
2019-05-03T14:09:38.467Z,46.90
2019-05-03T14:12:32.590Z,46.50
2019-05-03T14:15:27.782Z,46.60
2019-05-03T14:18:22.563Z,46.40
2019-05-03T14:21:24.328Z,46.60
2019-05-03T14:24:20.795Z,46.30
2019-05-03T14:27:17.079Z,46.30
2019-05-03T14:30:11.850Z,46.10
2019-05-03T14:33:06.398Z,46.20
2019-05-03T14:36:00.487Z,46.20
2019-05-03T14:38:58.471Z,46.10
2019-05-03T14:41:55.887Z,46.20
2019-05-03T14:44:50.218Z,46.20
2019-05-03T14:47:45.780Z,46.00
2019-05-03T14:50:41.212Z,46.50
2019-05-03T14:53:37.501Z,46.00
2019-05-03T14:56:35.731Z,46.00
2019-05-03T14:59:47.898Z,46.00
2019-05-03T15:02:51.142Z,45.80
2019-05-03T15:05:47.299Z,45.90
2019-05-03T15:08:42.337Z,45.80
2019-05-03T15:11:37.436Z,46.00
2019-05-03T15:14:34.599Z,45.80
2019-05-03T15:17:28.447Z,45.80
2019-05-03T15:20:22.087Z,45.70
2019-05-03T15:23:17.444Z,45.70
2019-05-03T15:26:11.931Z,45.60
2019-05-03T15:29:07.613Z,45.60
2019-05-03T15:32:02.037Z,45.70
2019-05-03T15:34:56.705Z,46.00
2019-05-03T15:37:51.522Z,45.70
2019-05-03T15:40:46.412Z,45.70
2019-05-03T15:43:46.539Z,45.70
2019-05-03T15:46:47.050Z,45.60
2019-05-03T15:49:41.870Z,45.80
2019-05-03T15:52:36.016Z,45.70
2019-05-03T15:55:32.745Z,45.90
2019-05-03T15:58:29.154Z,45.80
2019-05-03T16:01:24.913Z,45.80
2019-05-03T16:04:19.000Z,45.80
2019-05-03T16:07:14.400Z,45.90
2019-05-03T16:10:09.891Z,45.90
2019-05-03T16:13:04.831Z,45.80
2019-05-03T16:15:59.662Z,46.00
2019-05-03T16:18:54.270Z,45.90
2019-05-03T16:21:48.946Z,46.00
2019-05-03T16:24:42.219Z,46.00
2019-05-03T16:27:55.324Z,46.00
2019-05-03T16:31:02.266Z,45.90
2019-05-03T16:33:58.597Z,46.00
2019-05-03T16:36:54.998Z,46.00
2019-05-03T16:39:50.084Z,46.10
2019-05-03T16:42:46.259Z,46.10
2019-05-03T16:45:42.017Z,46.00
2019-05-03T16:48:35.966Z,46.10
2019-05-03T16:51:31.464Z,46.00
2019-05-03T16:54:25.571Z,46.00
2019-05-03T16:57:18.885Z,46.10
2019-05-03T17:00:15.365Z,46.10
2019-05-03T17:03:09.264Z,46.70
2019-05-03T17:06:39.297Z,46.00
2019-05-03T17:09:57.874Z,46.10
2019-05-03T17:12:54.369Z,46.10
2019-05-03T17:15:49.577Z,46.10
2019-05-03T17:18:44.708Z,46.20
2019-05-03T17:21:39.846Z,46.10
2019-05-03T17:24:35.174Z,46.10
2019-05-03T17:27:28.713Z,46.20
2019-05-03T17:30:22.118Z,46.20
2019-05-03T17:33:16.123Z,46.20
2019-05-03T17:36:10.457Z,46.10
2019-05-03T17:39:10.184Z,46.20
2019-05-03T17:42:26.419Z,46.20
2019-05-03T17:45:22.994Z,46.20
2019-05-03T17:48:16.387Z,46.20
2019-05-03T17:51:11.495Z,46.30
2019-05-03T17:54:29.842Z,46.40
2019-05-03T17:57:26.323Z,46.40
2019-05-03T18:00:35.770Z,46.40
2019-05-03T18:03:32.960Z,46.40
2019-05-03T18:06:34.768Z,46.30
2019-05-03T18:09:34.555Z,46.40
2019-05-03T18:12:28.210Z,46.30
2019-05-03T18:15:21.203Z,46.40
2019-05-03T18:18:15.754Z,46.30
2019-05-03T18:21:09.255Z,46.40
2019-05-03T18:24:02.564Z,46.40
2019-05-03T18:26:55.912Z,46.40
2019-05-03T18:29:50.090Z,46.40
2019-05-03T18:32:45.264Z,46.40
2019-05-03T18:35:39.818Z,46.40
2019-05-03T18:38:41.391Z,46.50
2019-05-03T18:41:36.384Z,46.40
2019-05-03T18:44:38.007Z,46.40
2019-05-03T18:47:32.096Z,46.30
2019-05-03T18:50:27.130Z,46.30
2019-05-03T18:53:22.355Z,46.20
2019-05-03T18:56:16.913Z,46.40
2019-05-03T18:59:14.511Z,46.40
2019-05-03T19:02:07.597Z,46.40
2019-05-03T19:05:01.600Z,46.40
2019-05-03T19:08:07.858Z,46.40
2019-05-03T19:11:07.163Z,46.50
2019-05-03T19:14:04.896Z,46.50
2019-05-03T19:17:15.978Z,46.40
2019-05-03T19:20:15.776Z,46.40
2019-05-03T19:23:10.949Z,46.50
2019-05-03T19:26:06.758Z,46.70
2019-05-03T19:29:01.002Z,46.60
2019-05-03T19:31:57.093Z,46.70
2019-05-03T19:34:52.268Z,46.80
2019-05-03T19:37:47.969Z,46.70
2019-05-03T19:40:42.908Z,46.90
2019-05-03T19:43:38.528Z,46.80
2019-05-03T19:46:35.125Z,46.80
2019-05-03T19:49:30.173Z,46.90
2019-05-03T19:52:27.793Z,46.80
2019-05-03T19:55:23.547Z,46.80
2019-05-03T19:58:19.923Z,46.80
2019-05-03T20:01:43.024Z,46.90
2019-05-03T20:05:05.681Z,46.90
2019-05-03T20:08:24.650Z,46.90
2019-05-03T20:11:22.263Z,46.90
2019-05-03T20:14:18.659Z,47.00
2019-05-03T20:17:14.791Z,47.10
2019-05-03T20:20:09.902Z,47.10
2019-05-03T20:23:02.768Z,47.20
2019-05-03T20:25:56.093Z,47.10
2019-05-03T20:28:51.638Z,47.20
2019-05-03T20:31:46.824Z,47.20
2019-05-03T20:34:41.716Z,47.20
2019-05-03T20:37:35.525Z,47.50
2019-05-03T20:40:30.807Z,47.30
2019-05-03T20:43:44.522Z,47.50
2019-05-03T20:46:47.729Z,47.40
2019-05-03T20:49:42.459Z,47.50
2019-05-03T20:52:36.352Z,47.60
2019-05-03T20:55:29.559Z,47.50
2019-05-03T20:58:25.158Z,47.40
2019-05-03T21:01:19.963Z,47.60
2019-05-03T21:04:15.190Z,47.50
2019-05-03T21:07:08.299Z,47.60
2019-05-03T21:10:01.954Z,47.50
2019-05-03T21:12:55.316Z,47.70
2019-05-03T21:16:06.885Z,47.30
2019-05-03T21:19:08.534Z,47.50
2019-05-03T21:22:05.699Z,47.80
2019-05-03T21:25:15.243Z,47.70
2019-05-03T21:28:08.828Z,47.90
2019-05-03T21:31:05.416Z,47.80
2019-05-03T21:33:58.656Z,47.90
2019-05-03T21:36:52.054Z,47.90
2019-05-03T21:39:45.650Z,48.00
2019-05-03T21:42:38.808Z,47.80
2019-05-03T21:45:40.182Z,47.70
2019-05-03T21:48:51.412Z,47.90
2019-05-03T21:51:45.072Z,47.90
2019-05-03T21:54:38.091Z,47.90
2019-05-03T21:57:31.981Z,48.10
2019-05-03T22:00:26.804Z,48.00
2019-05-03T22:03:21.787Z,47.90
2019-05-03T22:06:17.170Z,47.80
2019-05-03T22:09:11.080Z,47.80
2019-05-03T22:12:06.460Z,48.00
2019-05-03T22:15:15.172Z,48.00
2019-05-03T22:18:25.288Z,48.00
2019-05-03T22:21:36.987Z,48.00
2019-05-03T22:24:49.199Z,48.10
2019-05-03T22:27:45.516Z,48.00
2019-05-03T22:30:39.724Z,48.10
2019-05-03T22:33:33.580Z,48.10
2019-05-03T22:36:27.155Z,48.10
2019-05-03T22:39:21.689Z,48.20
2019-05-03T22:42:16.120Z,48.00
2019-05-03T22:45:10.453Z,48.10
2019-05-03T22:48:05.272Z,48.20
2019-05-03T22:50:58.915Z,48.00
2019-05-03T22:53:55.291Z,48.20
2019-05-03T22:56:50.071Z,48.10
2019-05-03T22:59:44.881Z,48.10
2019-05-03T23:02:39.696Z,48.00
2019-05-03T23:05:34.768Z,48.10
2019-05-03T23:08:30.346Z,48.10
2019-05-03T23:11:24.527Z,48.20
2019-05-03T23:14:18.714Z,48.10
2019-05-03T23:17:14.990Z,48.20
2019-05-03T23:20:15.266Z,48.20
2019-05-03T23:23:11.424Z,48.20
2019-05-03T23:26:05.376Z,48.30
2019-05-03T23:28:58.895Z,48.30
2019-05-03T23:31:51.850Z,48.30
2019-05-03T23:34:46.440Z,48.30
2019-05-03T23:37:39.952Z,48.20
2019-05-03T23:40:34.740Z,48.30
2019-05-03T23:43:28.070Z,48.20
2019-05-03T23:46:25.277Z,48.20
2019-05-03T23:49:18.597Z,48.10
2019-05-03T23:52:30.242Z,48.10
2019-05-03T23:55:44.910Z,48.30
2019-05-03T23:58:38.129Z,48.40
